TW-0016 weather

Mackay Memorial Hospital Helipad
New Taipei City, Taipei County, Taiwan

Public forecast

Using degrees Celsius for public forecast. Weather courtesy of forecast.io.

Closest aviation weather report (METAR) to Mackay Memorial Hospital Helipad

Closest report is Taipei Songshan Airport, 6.5 nm (12.1 km) SE. Retrieved 2020/04/05 22:00 UTC (3 minutes ago):

RCSS 052200Z 09008KT 9999 FEW012 BKN028 BKN042 18/14 Q1019 NOSIG RMK A3009

Closest aviation forecast (TAF) to Mackay Memorial Hospital Helipad

Closest forecast is Taipei Songshan Airport, 6.5 nm (12.1 km) SE. Retrieved 2020/04/05 18:00 UTC (4 hours ago):

TAF RCSS 051700Z 0518/0618 09010KT 9999 FEW015 BKN032 TEMPO 0520/0602 08005KT FEW010 BKN020 TEMPO 0613/0618 11005KT 5000 RA FEW010 BKN017